Time;durP1;ratioP1;P1;durP2;ratioP2;P2;SDS_P1;SDS_P2;PMS_P1;PMS_P2;Temp;Humidity;BMP_temperature;BMP_pressure;BME280_temperature;BME280_humidity;BME280_pressure;Samples;Min_cycle;Max_cycle;Signal;HPM_P1;HPM_P2
2021/12/23 00:02:18;;;;;;;19.83;9.63;;;-2.40;99.90;;;;;;4952503;29;20062;-76
2021/12/23 00:04:45;;;;;;;20.25;9.05;;;-2.40;99.90;;;;;;4952330;29;20095;-77
2021/12/23 00:07:11;;;;;;;22.50;11.38;;;-2.40;99.90;;;;;;4952407;29;20043;-75
2021/12/23 00:12:15;;;;;;;20.38;10.00;;;-2.40;99.90;;;;;;4951612;29;20599;-78
2021/12/23 00:14:41;;;;;;;18.10;9.23;;;-2.40;99.90;;;;;;4952456;29;20393;-78
2021/12/23 00:19:57;;;;;;;20.20;9.95;;;-2.40;99.90;;;;;;4991862;28;20439;-77
2021/12/23 00:25:07;;;;;;;18.52;9.43;;;-2.40;99.90;;;;;;5026364;28;20049;-78
2021/12/23 00:27:33;;;;;;;22.70;10.93;;;-2.40;99.90;;;;;;5037943;28;20051;-76
2021/12/23 00:29:58;;;;;;;21.67;10.10;;;-2.40;99.90;;;;;;5055788;28;20491;-78
2021/12/23 00:32:24;;;;;;;21.98;10.50;;;-2.40;99.90;;;;;;5055605;28;20118;-78
2021/12/23 00:34:49;;;;;;;21.27;10.43;;;-2.30;99.90;;;;;;5055781;28;20408;-76
2021/12/23 00:37:17;;;;;;;19.83;9.88;;;-2.30;99.90;;;;;;5055581;28;20048;-78
2021/12/23 00:39:44;;;;;;;20.73;11.35;;;-2.30;99.90;;;;;;5055468;28;20045;-79
2021/12/23 00:42:11;;;;;;;22.50;10.98;;;-2.30;99.90;;;;;;5055578;28;20119;-75
2021/12/23 00:44:40;;;;;;;23.77;10.00;;;-2.30;99.90;;;;;;5037421;28;20056;-77
2021/12/23 00:47:06;;;;;;;20.42;10.38;;;-2.30;99.90;;;;;;5055584;28;20056;-75
2021/12/23 00:49:32;;;;;;;18.63;9.57;;;-2.30;99.90;;;;;;5037627;28;20045;-79
2021/12/23 00:52:03;;;;;;;20.63;10.40;;;-2.20;99.90;;;;;;5055670;28;20063;-79
2021/12/23 00:54:28;;;;;;;19.33;10.40;;;-2.20;99.90;;;;;;5038029;28;20047;-79
2021/12/23 00:56:54;;;;;;;21.60;10.63;;;-2.20;99.90;;;;;;5038026;28;20041;-78
2021/12/23 00:59:20;;;;;;;18.95;9.75;;;-1.90;99.90;;;;;;5019819;28;20191;-75
2021/12/23 01:01:47;;;;;;;21.35;10.93;;;-2.20;99.90;;;;;;5055331;28;20084;-77
2021/12/23 01:04:12;;;;;;;19.23;9.75;;;-2.20;99.90;;;;;;5055123;28;20462;-77
2021/12/23 01:06:39;;;;;;;18.08;9.18;;;-2.10;99.90;;;;;;5037321;28;20127;-77
2021/12/23 01:09:04;;;;;;;26.00;12.20;;;-2.10;99.90;;;;;;5055253;28;20070;-78
2021/12/23 01:11:30;;;;;;;20.20;10.18;;;-2.10;99.90;;;;;;5037099;28;20403;-78
2021/12/23 01:14:24;;;;;;;18.27;9.25;;;-2.10;99.90;;;;;;5036795;28;20048;-78
2021/12/23 01:19:23;;;;;;;19.13;8.68;;;-2.00;99.90;;;;;;5054628;28;20045;-78
2021/12/23 01:21:49;;;;;;;23.02;9.98;;;-2.00;99.90;;;;;;5036702;28;20567;-77
2021/12/23 01:24:15;;;;;;;19.80;9.38;;;-2.00;99.90;;;;;;5036800;28;20131;-79
2021/12/23 01:26:41;;;;;;;17.85;9.65;;;-1.90;99.90;;;;;;5036847;28;20128;-78
2021/12/23 01:29:07;;;;;;;20.05;9.93;;;-1.90;99.90;;;;;;5054584;28;20416;-77
2021/12/23 01:31:34;;;;;;;18.88;9.18;;;-1.90;99.90;;;;;;5053433;28;20131;-78
2021/12/23 01:34:01;;;;;;;17.60;9.57;;;-1.90;99.90;;;;;;5036446;28;20092;-79
2021/12/23 01:36:27;;;;;;;18.17;9.32;;;-1.80;99.90;;;;;;5054443;28;20453;-78
2021/12/23 01:38:53;;;;;;;19.30;8.73;;;-1.80;99.90;;;;;;5054360;28;20530;-78
2021/12/23 01:41:21;;;;;;;18.50;9.45;;;-1.80;99.90;;;;;;5054500;28;20087;-79
2021/12/23 01:43:47;;;;;;;20.50;10.50;;;-1.70;99.90;;;;;;5036773;28;20128;-78
2021/12/23 01:46:14;;;;;;;20.30;9.73;;;-1.70;99.90;;;;;;5053901;28;20087;-78
2021/12/23 01:48:40;;;;;;;19.02;9.32;;;-1.80;99.90;;;;;;5054244;28;20110;-79
2021/12/23 01:51:05;;;;;;;21.73;9.85;;;-1.70;99.90;;;;;;5054009;28;20045;-79
2021/12/23 01:53:31;;;;;;;18.77;9.50;;;-1.70;99.90;;;;;;5019883;28;20118;-78
2021/12/23 01:55:59;;;;;;;21.25;10.13;;;-1.70;99.90;;;;;;5054327;28;20045;-79
2021/12/23 01:58:25;;;;;;;19.75;9.00;;;-1.70;99.90;;;;;;5036091;28;20051;-77
2021/12/23 02:00:51;;;;;;;20.70;9.20;;;-1.60;99.90;;;;;;5054096;28;20033;-79
2021/12/23 02:03:18;;;;;;;20.50;10.82;;;-1.60;99.90;;;;;;5053459;28;20133;-79
2021/12/23 02:05:44;;;;;;;19.42;10.00;;;-1.60;99.90;;;;;;5036292;28;20049;-78
2021/12/23 02:08:10;;;;;;;19.23;9.52;;;-1.70;99.90;;;;;;5053766;28;20033;-79
2021/12/23 02:10:36;;;;;;;17.13;8.27;;;-1.70;99.90;;;;;;5054008;28;20033;-78
2021/12/23 02:13:02;;;;;;;20.90;9.80;;;-1.60;99.90;;;;;;5053834;28;20037;-78
2021/12/23 02:15:28;;;;;;;21.20;10.93;;;-1.50;99.90;;;;;;5053737;28;20040;-79
2021/12/23 02:17:54;;;;;;;18.88;9.10;;;-1.60;99.90;;;;;;5053332;28;20124;-79
2021/12/23 02:20:23;;;;;;;19.30;9.45;;;-1.50;99.90;;;;;;5035910;28;20106;-78
2021/12/23 02:22:49;;;;;;;19.67;9.75;;;-1.50;99.90;;;;;;5053510;28;20098;-78
2021/12/23 02:25:16;;;;;;;20.83;10.88;;;-1.50;99.90;;;;;;5053746;28;20116;-78
2021/12/23 02:27:45;;;;;;;19.83;10.38;;;-1.50;99.90;;;;;;5035720;28;20075;-79
2021/12/23 02:30:18;;;;;;;18.98;9.75;;;-1.50;99.90;;;;;;5053628;28;20049;-79
2021/12/23 02:32:45;;;;;;;20.80;10.68;;;-1.50;99.90;;;;;;5053143;28;20056;-78
2021/12/23 02:35:16;;;;;;;24.50;11.95;;;-1.50;99.90;;;;;;5052905;28;20037;-79
2021/12/23 02:37:42;;;;;;;23.77;11.75;;;-1.40;99.90;;;;;;5053565;28;20059;-78
2021/12/23 02:40:10;;;;;;;19.67;10.07;;;-1.40;99.90;;;;;;5053569;28;20040;-78
2021/12/23 02:42:36;;;;;;;23.77;11.90;;;-1.40;99.90;;;;;;5052317;28;20071;-78
2021/12/23 02:45:04;;;;;;;22.02;10.38;;;-1.40;99.90;;;;;;5053275;28;20048;-79
2021/12/23 02:47:31;;;;;;;19.67;10.20;;;-1.40;99.90;;;;;;5035429;28;20055;-76
2021/12/23 02:49:57;;;;;;;20.17;10.98;;;-1.40;99.90;;;;;;5052738;28;20048;-74
2021/12/23 02:52:23;;;;;;;20.67;11.00;;;-1.40;99.90;;;;;;5053209;28;20131;-79
2021/12/23 02:54:56;;;;;;;24.05;11.73;;;-1.40;99.90;;;;;;5035384;28;20049;-78
2021/12/23 02:57:23;;;;;;;24.20;11.43;;;-1.40;99.90;;;;;;5035266;28;20041;-79
2021/12/23 02:59:49;;;;;;;17.73;9.80;;;-1.40;99.90;;;;;;5053141;28;20041;-78
2021/12/23 03:02:14;;;;;;;22.15;10.93;;;-1.40;99.90;;;;;;5035219;28;20558;-76
2021/12/23 03:04:40;;;;;;;19.95;10.05;;;-1.40;99.90;;;;;;5035262;28;20140;-79
2021/12/23 03:07:05;;;;;;;21.08;10.82;;;-1.40;99.90;;;;;;5052253;28;20044;-78
2021/12/23 03:09:31;;;;;;;19.10;9.82;;;-1.40;99.90;;;;;;5053046;28;20083;-78
2021/12/23 03:11:57;;;;;;;20.65;9.75;;;-1.40;99.90;;;;;;5035062;28;20496;-78
2021/12/23 03:14:22;;;;;;;19.92;10.00;;;-1.40;99.90;;;;;;5053033;28;20048;-78
2021/12/23 03:16:50;;;;;;;17.85;9.48;;;-1.40;99.90;;;;;;5052959;28;20041;-78
2021/12/23 03:19:15;;;;;;;19.23;9.60;;;-1.30;99.90;;;;;;5052826;28;20143;-78
2021/12/23 03:21:44;;;;;;;20.35;10.43;;;-1.10;99.90;;;;;;5034488;28;20069;-77
2021/12/23 03:24:11;;;;;;;19.08;9.80;;;-1.30;99.90;;;;;;5052810;28;20048;-78
2021/12/23 03:26:37;;;;;;;17.13;9.57;;;-1.30;99.90;;;;;;5052957;28;20049;-79
2021/12/23 03:29:03;;;;;;;20.00;10.15;;;-1.30;99.90;;;;;;5034736;28;20047;-77
2021/12/23 03:31:29;;;;;;;20.45;10.27;;;-1.30;99.90;;;;;;5052816;28;20045;-78
2021/12/23 03:33:55;;;;;;;21.05;10.35;;;-1.30;99.90;;;;;;5052487;28;20057;-78
2021/12/23 03:36:20;;;;;;;20.17;10.93;;;-1.30;99.90;;;;;;5052654;28;20052;-78
2021/12/23 03:38:46;;;;;;;21.63;11.18;;;-1.30;99.90;;;;;;5052337;28;20413;-78
2021/12/23 03:41:14;;;;;;;21.88;11.45;;;-1.30;99.90;;;;;;5052556;28;20095;-78
2021/12/23 03:43:41;;;;;;;23.20;11.48;;;-1.30;99.90;;;;;;5053005;28;20076;-78
2021/12/23 03:46:06;;;;;;;21.77;11.25;;;-1.30;99.90;;;;;;5052807;28;20120;-78
2021/12/23 03:48:32;;;;;;;24.48;11.10;;;-1.30;99.90;;;;;;5034842;28;20091;-78
2021/12/23 03:50:58;;;;;;;19.50;10.10;;;-1.30;99.90;;;;;;5052553;28;20037;-77
2021/12/23 03:53:23;;;;;;;19.73;10.95;;;-1.30;99.90;;;;;;5052118;28;20527;-75
2021/12/23 03:55:50;;;;;;;22.15;10.50;;;-1.30;99.90;;;;;;5056546;28;20052;-74
2021/12/23 03:58:15;;;;;;;20.77;10.02;;;-1.30;99.90;;;;;;5021967;28;20124;-75
2021/12/23 04:00:42;;;;;;;22.10;10.50;;;-1.20;99.90;;;;;;5056340;28;20037;-76
2021/12/23 04:03:09;;;;;;;22.20;10.98;;;-1.20;99.90;;;;;;5056247;28;20404;-76
2021/12/23 04:05:34;;;;;;;22.00;10.48;;;-1.20;99.90;;;;;;5056080;28;20056;-76
2021/12/23 04:08:00;;;;;;;20.52;10.98;;;-1.20;99.90;;;;;;5056238;28;20041;-74
2021/12/23 04:10:26;;;;;;;22.33;11.82;;;-1.10;99.90;;;;;;5055921;28;20403;-76
2021/12/23 04:12:52;;;;;;;23.15;11.52;;;-1.10;99.90;;;;;;5056097;28;20048;-75
2021/12/23 04:15:19;;;;;;;19.63;9.85;;;-1.10;99.90;;;;;;5056048;28;20584;-76
2021/12/23 04:17:44;;;;;;;21.40;10.40;;;-1.10;99.90;;;;;;5056088;28;20435;-76
2021/12/23 04:20:21;;;;;;;20.33;10.68;;;-1.10;99.90;;;;;;5055719;28;20037;-76
2021/12/23 04:22:50;;;;;;;18.30;10.07;;;-1.10;99.90;;;;;;5055996;28;20585;-76
2021/12/23 04:25:18;;;;;;;21.23;11.07;;;-1.10;99.90;;;;;;5037597;28;20045;-76
2021/12/23 04:27:46;;;;;;;21.23;10.35;;;-1.10;99.90;;;;;;5055981;28;20037;-76
2021/12/23 04:30:12;;;;;;;22.35;11.30;;;-1.10;99.90;;;;;;5055911;28;20040;-76
2021/12/23 04:32:39;;;;;;;21.48;10.25;;;-1.10;99.90;;;;;;5055635;28;20045;-76
2021/12/23 04:35:05;;;;;;;22.80;11.95;;;-0.20;99.90;;;;;;5055470;28;20492;-76
2021/12/23 04:37:31;;;;;;;19.10;10.15;;;-1.00;99.90;;;;;;5055814;28;20076;-74
2021/12/23 04:39:57;;;;;;;18.45;9.57;;;-1.10;99.90;;;;;;5055566;28;20476;-75
2021/12/23 04:42:22;;;;;;;20.52;9.60;;;-0.20;99.90;;;;;;5037329;28;20044;-75
2021/12/23 04:44:48;;;;;;;21.52;10.00;;;-1.00;99.90;;;;;;5055491;28;20041;-75
2021/12/23 04:47:14;;;;;;;22.05;10.15;;;-1.00;99.90;;;;;;5037681;28;20041;-76
2021/12/23 04:49:39;;;;;;;19.05;9.88;;;-1.00;99.90;;;;;;5037606;28;20060;-76
2021/12/23 04:52:05;;;;;;;21.15;10.07;;;-1.00;99.90;;;;;;5055388;28;20337;-77
2021/12/23 04:54:31;;;;;;;18.80;10.00;;;-1.00;99.90;;;;;;5055570;28;20142;-76
2021/12/23 04:56:57;;;;;;;19.40;9.68;;;-1.00;99.90;;;;;;5055087;28;20080;-76
2021/12/23 04:59:22;;;;;;;19.42;9.43;;;-1.00;99.90;;;;;;5055292;28;20124;-77
2021/12/23 05:01:50;;;;;;;18.63;9.32;;;-0.90;99.90;;;;;;5037263;28;20045;-76
2021/12/23 05:04:15;;;;;;;20.23;10.38;;;-0.90;99.90;;;;;;5055266;28;20049;-76
2021/12/23 05:06:41;;;;;;;19.55;9.95;;;-0.90;99.90;;;;;;5036617;28;20401;-76
2021/12/23 05:09:07;;;;;;;18.65;9.00;;;-0.90;99.90;;;;;;5055342;28;20048;-77
2021/12/23 05:11:32;;;;;;;20.42;9.50;;;-0.90;99.90;;;;;;5055695;28;20453;-76
2021/12/23 05:13:58;;;;;;;20.65;8.30;;;-0.90;99.90;;;;;;5054550;28;20126;-76
2021/12/23 05:16:24;;;;;;;19.73;9.18;;;-0.90;99.90;;;;;;5054962;28;20092;-75
2021/12/23 05:18:49;;;;;;;22.92;10.07;;;-0.90;99.90;;;;;;5054877;28;20044;-75
2021/12/23 05:21:15;;;;;;;20.38;9.77;;;-0.20;99.90;;;;;;5036958;28;20048;-78
2021/12/23 05:23:41;;;;;;;19.52;9.85;;;-0.90;99.90;;;;;;5055047;28;20044;-78
2021/12/23 05:26:08;;;;;;;20.00;9.90;;;-0.90;99.90;;;;;;5037051;28;20052;-79
2021/12/23 05:28:34;;;;;;;20.45;10.30;;;-0.90;99.90;;;;;;5036408;28;20059;-78
2021/12/23 05:31:00;;;;;;;18.80;9.70;;;-0.80;99.90;;;;;;5059037;28;20173;-79
2021/12/23 05:33:26;;;;;;;19.63;9.02;;;-0.90;99.90;;;;;;5036742;28;20508;-77
2021/12/23 05:35:51;;;;;;;20.63;9.90;;;-0.90;99.90;;;;;;5059194;28;20048;-73
2021/12/23 05:38:17;;;;;;;21.30;10.63;;;-0.80;99.90;;;;;;5064019;28;20052;-75
2021/12/23 05:40:43;;;;;;;18.40;10.25;;;-0.80;99.90;;;;;;5056466;28;20120;-75
2021/12/23 05:43:09;;;;;;;19.67;9.80;;;-0.80;99.90;;;;;;5054685;28;20055;-79
2021/12/23 05:45:34;;;;;;;19.73;10.20;;;-0.80;99.90;;;;;;5036302;28;20101;-79
2021/12/23 05:48:00;;;;;;;20.88;10.05;;;-0.80;99.90;;;;;;5054362;28;20124;-78
2021/12/23 05:50:26;;;;;;;23.50;9.40;;;-0.80;99.90;;;;;;5055158;28;20044;-76
2021/12/23 05:52:52;;;;;;;19.50;9.90;;;-0.80;99.90;;;;;;5054099;28;20037;-74
2021/12/23 05:55:19;;;;;;;19.83;10.68;;;-0.90;99.90;;;;;;5054353;28;20080;-75
2021/12/23 05:57:46;;;;;;;22.75;10.95;;;-0.90;99.90;;;;;;5036507;28;20075;-75
2021/12/23 06:00:21;;;;;;;20.42;9.55;;;-0.90;99.90;;;;;;5053442;28;20052;-76
2021/12/23 06:02:48;;;;;;;21.63;10.32;;;-0.90;99.90;;;;;;5054034;28;20049;-75
2021/12/23 06:05:14;;;;;;;24.45;10.75;;;-0.80;99.90;;;;;;5036173;28;20088;-75
2021/12/23 06:07:41;;;;;;;19.50;9.68;;;-0.90;99.90;;;;;;5053824;28;20041;-75
2021/12/23 06:10:07;;;;;;;22.50;10.82;;;-0.90;99.90;;;;;;5053064;28;20060;-74
2021/12/23 06:12:33;;;;;;;22.60;11.35;;;-0.90;99.90;;;;;;5053923;28;20392;-75
2021/12/23 06:14:59;;;;;;;20.85;9.88;;;-0.90;99.90;;;;;;5053963;28;20053;-76
2021/12/23 06:17:24;;;;;;;23.25;11.23;;;-0.90;99.90;;;;;;5035633;28;20049;-73
2021/12/23 06:19:50;;;;;;;21.63;10.90;;;-0.90;99.90;;;;;;5053754;28;20080;-73
2021/12/23 06:22:18;;;;;;;22.17;11.15;;;-0.90;99.90;;;;;;5053515;28;20385;-74
2021/12/23 06:24:46;;;;;;;25.17;12.30;;;-0.90;99.90;;;;;;5053853;28;20128;-76
2021/12/23 06:27:12;;;;;;;19.15;9.73;;;-0.90;99.90;;;;;;5053412;28;20049;-76
2021/12/23 06:29:38;;;;;;;26.10;10.85;;;-0.90;99.90;;;;;;5053723;28;20041;-75
2021/12/23 06:32:04;;;;;;;19.67;9.82;;;-0.80;99.90;;;;;;5052823;28;20499;-75
2021/12/23 06:34:32;;;;;;;21.70;10.30;;;-0.80;99.90;;;;;;5053433;28;20052;-74
2021/12/23 06:36:58;;;;;;;21.02;10.60;;;-0.80;99.90;;;;;;5053236;28;20102;-75
2021/12/23 06:39:24;;;;;;;21.60;11.35;;;-0.80;99.90;;;;;;5053339;28;20536;-75
2021/12/23 06:41:50;;;;;;;22.25;11.23;;;-0.80;99.90;;;;;;5053125;28;20120;-75
2021/12/23 06:44:15;;;;;;;21.88;10.57;;;-0.80;99.90;;;;;;5053495;28;20041;-75
2021/12/23 06:46:41;;;;;;;23.85;11.50;;;-0.80;99.90;;;;;;5053053;28;20048;-75
2021/12/23 06:49:07;;;;;;;20.20;9.65;;;-0.80;99.90;;;;;;5052800;28;20048;-74
2021/12/23 06:51:33;;;;;;;21.75;10.38;;;-0.80;99.90;;;;;;5035119;28;20048;-75
2021/12/23 06:54:01;;;;;;;23.23;11.60;;;-0.80;99.90;;;;;;5053308;28;20120;-74
2021/12/23 06:56:26;;;;;;;24.63;10.23;;;-0.80;99.90;;;;;;5053204;28;20389;-76
2021/12/23 06:58:52;;;;;;;23.90;11.57;;;-0.80;99.90;;;;;;5053203;28;20052;-75
2021/12/23 07:01:20;;;;;;;22.35;11.40;;;-0.80;99.90;;;;;;5053162;28;20041;-77
2021/12/23 07:04:05;;;;;;;23.77;12.02;;;-0.80;99.90;;;;;;5052892;28;20065;-75
2021/12/23 07:06:34;;;;;;;25.33;10.85;;;-0.80;99.90;;;;;;5052856;28;20124;-74
2021/12/23 07:09:03;;;;;;;21.02;11.43;;;-0.80;99.90;;;;;;5053024;28;20048;-72
2021/12/23 07:11:29;;;;;;;25.92;10.98;;;-0.80;99.90;;;;;;5052858;28;20056;-74
2021/12/23 07:13:54;;;;;;;23.95;12.13;;;-0.80;99.90;;;;;;5052949;28;20045;-75
2021/12/23 07:16:20;;;;;;;21.70;11.52;;;-0.70;99.90;;;;;;5035233;28;20128;-76
2021/12/23 07:18:46;;;;;;;22.88;10.70;;;-0.70;99.90;;;;;;5052987;28;20060;-76
2021/12/23 07:21:12;;;;;;;23.15;11.40;;;-0.70;99.90;;;;;;5052081;28;20049;-72
2021/12/23 07:23:38;;;;;;;22.23;11.55;;;-0.70;99.90;;;;;;5052960;28;20407;-74
2021/12/23 07:26:03;;;;;;;23.83;11.98;;;-0.70;99.90;;;;;;5053004;28;20040;-74
2021/12/23 07:28:29;;;;;;;22.17;11.00;;;-0.70;99.90;;;;;;5052870;28;20115;-74
2021/12/23 07:30:55;;;;;;;21.67;11.15;;;-0.70;99.90;;;;;;5056922;28;20040;-75
2021/12/23 07:33:22;;;;;;;20.25;10.43;;;-0.60;99.90;;;;;;5038770;28;20092;-73
2021/12/23 07:35:48;;;;;;;23.17;10.65;;;-0.60;99.90;;;;;;5056192;28;20048;-75
2021/12/23 07:38:14;;;;;;;23.85;11.52;;;-0.60;99.90;;;;;;5056591;28;20052;-76
2021/12/23 07:40:41;;;;;;;23.20;11.70;;;-0.60;99.90;;;;;;5038700;28;20497;-74
2021/12/23 07:43:20;;;;;;;23.60;11.13;;;-0.60;99.90;;;;;;5056767;28;20417;-74
2021/12/23 07:45:46;;;;;;;27.23;11.90;;;-0.60;99.90;;;;;;5038459;28;20072;-74
2021/12/23 07:48:11;;;;;;;23.50;11.77;;;-0.60;99.90;;;;;;5056566;28;20041;-74
2021/12/23 07:50:40;;;;;;;23.42;11.48;;;0.60;99.90;;;;;;5056390;28;20128;-71
2021/12/23 07:53:05;;;;;;;25.17;12.65;;;-0.60;99.90;;;;;;5054106;28;20057;-73
2021/12/23 07:55:31;;;;;;;24.90;12.13;;;-0.60;99.90;;;;;;5056393;28;20103;-74
2021/12/23 07:57:57;;;;;;;25.23;12.65;;;-0.20;99.90;;;;;;5056403;28;20055;-74
2021/12/23 08:00:23;;;;;;;23.73;11.60;;;-0.60;99.90;;;;;;5055015;28;20045;-74
2021/12/23 08:02:49;;;;;;;25.52;12.10;;;-0.60;99.90;;;;;;5055155;28;20045;-74
2021/12/23 08:05:14;;;;;;;23.80;12.27;;;-0.60;99.90;;;;;;5055411;28;20116;-73
2021/12/23 08:07:40;;;;;;;27.70;12.43;;;-0.60;99.90;;;;;;5055305;28;20037;-71
2021/12/23 08:10:06;;;;;;;24.45;12.00;;;-0.60;99.90;;;;;;5055856;28;20484;-78
2021/12/23 08:12:33;;;;;;;26.67;13.82;;;-0.60;99.90;;;;;;5056024;28;20056;-74
2021/12/23 08:14:59;;;;;;;27.55;13.70;;;-0.60;99.90;;;;;;5056471;28;20033;-75
2021/12/23 08:17:26;;;;;;;29.35;15.00;;;-0.60;99.90;;;;;;5055908;28;20501;-74
2021/12/23 08:19:51;;;;;;;26.63;13.75;;;-0.60;99.90;;;;;;5055946;28;20041;-77
2021/12/23 08:22:17;;;;;;;26.95;13.98;;;-0.50;99.90;;;;;;5037898;28;20127;-74
2021/12/23 08:24:42;;;;;;;30.30;15.35;;;-0.50;99.90;;;;;;5055169;28;20466;-75
2021/12/23 08:27:08;;;;;;;30.90;15.85;;;-0.60;99.90;;;;;;5055216;28;20447;-74
2021/12/23 08:29:35;;;;;;;28.17;14.63;;;-0.50;99.90;;;;;;5040593;28;20373;-75
2021/12/23 08:32:01;;;;;;;31.42;15.20;;;-0.50;99.90;;;;;;5051212;28;20040;-75
2021/12/23 08:34:28;;;;;;;32.13;15.10;;;-0.50;99.90;;;;;;5050487;28;20528;-74
2021/12/23 08:36:54;;;;;;;29.85;15.60;;;-0.50;99.90;;;;;;5053921;28;20103;-72
2021/12/23 08:39:20;;;;;;;27.60;14.55;;;-0.40;99.90;;;;;;5053794;28;20422;-72
2021/12/23 08:41:47;;;;;;;32.90;15.77;;;-0.40;99.90;;;;;;5052311;28;20055;-72
2021/12/23 08:44:13;;;;;;;36.13;17.15;;;-0.40;99.90;;;;;;5053865;28;20396;-74
2021/12/23 08:46:39;;;;;;;30.48;15.05;;;-0.40;99.90;;;;;;5036295;28;20048;-73
2021/12/23 08:49:05;;;;;;;30.50;14.75;;;-0.40;99.90;;;;;;5053710;28;20523;-74
2021/12/23 08:51:36;;;;;;;30.60;15.85;;;-0.30;99.90;;;;;;5053709;28;20052;-74
2021/12/23 08:54:02;;;;;;;30.88;15.82;;;-0.30;99.90;;;;;;5053087;28;20052;-71
2021/12/23 08:56:28;;;;;;;29.80;15.60;;;-0.30;99.90;;;;;;5053776;28;20060;-72
2021/12/23 08:58:54;;;;;;;30.88;16.13;;;-0.30;99.90;;;;;;5035329;28;20041;-72
2021/12/23 09:01:20;;;;;;;29.33;15.70;;;-0.30;99.90;;;;;;5053648;28;20037;-73
2021/12/23 09:03:46;;;;;;;33.58;16.30;;;-0.30;99.90;;;;;;5054117;28;20128;-71
2021/12/23 09:06:12;;;;;;;28.63;15.43;;;-0.30;99.90;;;;;;5037319;28;20045;-71
2021/12/23 09:08:37;;;;;;;30.38;15.48;;;-0.30;99.90;;;;;;5050762;28;20040;-73
2021/12/23 09:11:03;;;;;;;32.67;17.20;;;-0.30;99.90;;;;;;5053757;28;20068;-73
2021/12/23 09:13:30;;;;;;;35.10;17.13;;;-0.30;99.90;;;;;;5043436;28;20374;-74
2021/12/23 09:15:57;;;;;;;32.28;16.27;;;-0.20;99.90;;;;;;5052835;28;20048;-73
2021/12/23 09:18:23;;;;;;;35.05;18.17;;;-0.20;99.90;;;;;;5043288;28;20118;-72
2021/12/23 09:20:50;;;;;;;32.65;17.30;;;-0.20;99.90;;;;;;5043313;28;20041;-74
2021/12/23 09:23:16;;;;;;;32.13;16.23;;;-0.20;99.90;;;;;;5054029;28;20293;-74
2021/12/23 09:25:42;;;;;;;31.63;16.08;;;-0.20;99.90;;;;;;5051574;28;20057;-77
2021/12/23 09:28:39;;;;;;;34.65;17.23;;;-0.10;99.90;;;;;;5053315;28;20051;-77
2021/12/23 09:33:49;;;;;;;33.75;17.10;;;-0.10;99.90;;;;;;5015071;28;20473;-75
2021/12/23 09:36:15;;;;;;;32.55;17.65;;;-0.20;99.90;;;;;;5032437;28;20080;-75
2021/12/23 09:38:41;;;;;;;33.35;17.00;;;-0.20;99.90;;;;;;5014827;28;20049;-75
2021/12/23 09:41:16;;;;;;;31.55;16.65;;;-0.10;99.90;;;;;;5032769;28;20056;-74
2021/12/23 09:43:43;;;;;;;33.58;18.10;;;-0.10;99.90;;;;;;5014539;28;20083;-75
2021/12/23 09:46:11;;;;;;;38.47;18.90;;;-0.10;99.90;;;;;;5015414;28;20619;-73
2021/12/23 09:48:42;;;;;;;37.25;19.83;;;-0.10;99.90;;;;;;5014344;28;20397;-79
2021/12/23 09:51:10;;;;;;;35.15;17.40;;;-0.10;99.90;;;;;;5014916;28;20041;-74
2021/12/23 09:53:39;;;;;;;38.88;19.23;;;-0.10;99.90;;;;;;4998358;28;20049;-75
2021/12/23 09:56:05;;;;;;;35.15;18.48;;;-0.10;99.90;;;;;;5050164;28;20072;-78
2021/12/23 09:58:31;;;;;;;36.50;18.20;;;-0.10;99.90;;;;;;5033924;28;20041;-76
2021/12/23 10:00:59;;;;;;;37.85;18.17;;;-0.10;99.90;;;;;;5052600;28;20123;-80
2021/12/23 10:03:25;;;;;;;37.38;18.50;;;-0.10;99.90;;;;;;5050995;28;20049;-73
2021/12/23 10:05:52;;;;;;;33.38;17.65;;;1.10;99.90;;;;;;5052443;28;20048;-73
2021/12/23 10:08:18;;;;;;;29.65;15.75;;;-0.10;99.90;;;;;;5040139;28;20045;-74
2021/12/23 10:32:46;;;;;;;40.85;20.98;;;0.00;99.90;;;;;;5031566;28;20489;-75
2021/12/23 10:38:07;;;;;;;40.30;19.88;;;-0.10;99.90;;;;;;5031375;28;20364;-76
2021/12/23 10:40:34;;;;;;;43.13;21.50;;;0.90;99.90;;;;;;5014375;28;20432;-81
2021/12/23 10:43:02;;;;;;;42.13;21.60;;;-0.10;99.90;;;;;;5013504;28;20047;-72
2021/12/23 10:45:55;;;;;;;40.75;19.63;;;0.00;99.90;;;;;;5031383;28;20045;-76
2021/12/23 10:48:22;;;;;;;42.20;20.20;;;-0.10;99.90;;;;;;5031232;28;20045;-75
2021/12/23 10:50:51;;;;;;;43.70;21.58;;;0.00;99.90;;;;;;5031593;28;20098;-75
2021/12/23 10:59:18;;;;;;;40.83;19.95;;;0.00;99.90;;;;;;5031077;28;20563;-73
2021/12/23 11:02:02;;;;;;;42.83;21.27;;;0.00;99.90;;;;;;5031310;28;20084;-74
2021/12/23 11:04:34;;;;;;;42.97;20.88;;;0.00;99.90;;;;;;5030728;28;20084;-72
2021/12/23 11:07:16;;;;;;;43.80;19.98;;;0.50;99.90;;;;;;5031525;28;20405;-76
2021/12/23 11:10:17;;;;;;;45.45;21.27;;;0.00;99.90;;;;;;5031034;28;20053;-75
2021/12/23 11:41:00;;;;;;;48.42;23.13;;;0.00;99.90;;;;;;4867854;29;20558;-72
2021/12/23 11:45:53;;;;;;;49.65;22.75;;;0.00;99.90;;;;;;4893992;29;20044;-69
2021/12/23 11:48:19;;;;;;;45.90;22.90;;;0.00;99.90;;;;;;4893185;29;20183;-76
2021/12/23 11:53:29;;;;;;;45.90;22.90;;;0.00;99.90;;;;;;4893179;29;20495;-71
2021/12/23 11:55:56;;;;;;;44.20;20.67;;;0.00;99.90;;;;;;4893814;29;20139;-74
2021/12/23 11:58:26;;;;;;;43.38;21.55;;;0.00;99.90;;;;;;4893654;29;20448;-72
2021/12/23 12:01:06;;;;;;;46.40;21.63;;;0.00;99.90;;;;;;4920304;29;20051;-76
2021/12/23 12:03:40;;;;;;;46.17;21.55;;;0.10;99.90;;;;;;4931227;29;20060;-72
2021/12/23 12:06:13;;;;;;;46.05;22.48;;;0.00;99.90;;;;;;4930785;29;20571;-72
2021/12/23 12:08:39;;;;;;;41.60;21.30;;;0.00;99.90;;;;;;4931493;29;20059;-72
2021/12/23 12:11:21;;;;;;;44.80;22.85;;;0.00;99.90;;;;;;4914654;29;20079;-72
2021/12/23 12:13:47;;;;;;;46.90;23.17;;;0.10;99.90;;;;;;4931388;29;20143;-70
2021/12/23 12:16:36;;;;;;;46.92;23.17;;;0.00;99.90;;;;;;5015118;28;20084;-72
2021/12/23 12:19:06;;;;;;;47.78;22.30;;;0.30;99.90;;;;;;5016105;28;20144;-72
2021/12/23 12:21:34;;;;;;;45.22;23.38;;;0.10;99.90;;;;;;5033670;28;20046;-71
2021/12/23 12:24:19;;;;;;;47.58;23.25;;;0.10;99.90;;;;;;5034516;28;20179;-71
2021/12/23 12:27:01;;;;;;;46.28;22.77;;;0.10;99.90;;;;;;5036040;28;20099;-70
2021/12/23 12:29:38;;;;;;;45.00;21.65;;;0.10;99.90;;;;;;5017078;28;20572;-69
2021/12/23 12:32:05;;;;;;;41.33;20.30;;;0.10;99.90;;;;;;5047150;28;20448;-71
2021/12/23 12:34:37;;;;;;;46.90;23.10;;;0.10;99.90;;;;;;5042762;28;20050;-69
2021/12/23 12:37:04;;;;;;;43.10;21.95;;;0.10;99.90;;;;;;5021192;28;20038;-71
2021/12/23 12:39:34;;;;;;;49.10;22.73;;;0.10;99.90;;;;;;5043587;28;20056;-71
2021/12/23 12:42:10;;;;;;;43.17;20.35;;;0.20;99.90;;;;;;5033544;28;20049;-69
2021/12/23 12:44:54;;;;;;;44.45;21.95;;;0.20;99.90;;;;;;5044406;28;20124;-77
2021/12/23 12:47:27;;;;;;;45.10;21.30;;;0.20;99.90;;;;;;5041381;28;20045;-72
2021/12/23 12:50:06;;;;;;;43.97;21.85;;;0.20;99.90;;;;;;5013710;28;20357;-72
2021/12/23 12:52:38;;;;;;;46.30;20.90;;;0.20;99.90;;;;;;5053648;28;20063;-71
2021/12/23 12:55:15;;;;;;;46.22;21.90;;;0.30;99.90;;;;;;5053580;28;20130;-69
2021/12/23 12:57:55;;;;;;;49.10;22.30;;;0.30;99.90;;;;;;5053788;28;20124;-75
2021/12/23 13:00:24;;;;;;;48.00;21.17;;;0.30;99.90;;;;;;5053368;28;20041;-69
2021/12/23 13:03:06;;;;;;;47.03;21.75;;;0.30;99.90;;;;;;5036009;28;20043;-69
2021/12/23 13:05:38;;;;;;;44.65;22.75;;;0.30;99.90;;;;;;5053409;28;20051;-69
2021/12/23 13:08:24;;;;;;;45.92;21.70;;;0.30;99.90;;;;;;5048160;28;20100;-70
2021/12/23 13:10:50;;;;;;;44.13;20.92;;;0.30;99.90;;;;;;5030585;28;20049;-72
2021/12/23 13:13:32;;;;;;;47.00;22.90;;;0.40;99.90;;;;;;5014234;28;20508;-71
2021/12/23 13:16:00;;;;;;;44.95;20.42;;;0.30;99.90;;;;;;5031459;28;20041;-69
2021/12/23 13:18:27;;;;;;;47.85;23.05;;;0.30;99.90;;;;;;5014119;28;20053;-71
2021/12/23 13:20:55;;;;;;;48.65;21.85;;;0.30;99.90;;;;;;5031859;28;20566;-70
2021/12/23 13:23:23;;;;;;;42.40;19.65;;;0.30;99.90;;;;;;5011061;28;20100;-71
2021/12/23 13:25:57;;;;;;;50.80;23.52;;;0.40;99.90;;;;;;5011931;28;20049;-79
2021/12/23 13:28:37;;;;;;;38.45;19.60;;;0.30;99.90;;;;;;5022814;28;20243;-77
2021/12/23 13:31:15;;;;;;;43.53;20.15;;;0.40;99.90;;;;;;5013800;28;20531;-73
2021/12/23 13:33:46;;;;;;;44.60;21.00;;;0.40;99.90;;;;;;5013200;28;20119;-71
2021/12/23 13:36:28;;;;;;;42.45;20.88;;;0.40;99.90;;;;;;5009258;28;20046;-71
2021/12/23 13:38:56;;;;;;;45.23;20.93;;;0.40;99.90;;;;;;5019640;28;20085;-71
2021/12/23 13:41:25;;;;;;;46.58;21.73;;;0.50;99.90;;;;;;5025816;28;20038;-72
2021/12/23 13:43:54;;;;;;;43.75;21.73;;;0.40;99.90;;;;;;5030657;28;20492;-73
2021/12/23 13:46:20;;;;;;;44.38;20.50;;;0.40;99.90;;;;;;5010047;28;20378;-71
2021/12/23 13:49:01;;;;;;;42.53;20.50;;;0.40;99.90;;;;;;5013445;28;20046;-74
2021/12/23 13:51:31;;;;;;;43.95;22.00;;;0.40;99.90;;;;;;5012691;28;20053;-68
2021/12/23 13:54:15;;;;;;;37.88;19.10;;;0.40;99.90;;;;;;5025745;28;20107;-72